Time;durP1;ratioP1;P1;durP2;ratioP2;P2;SDS_P1;SDS_P2;PMS_P1;PMS_P2;Temp;Humidity;BMP_temperature;BMP_pressure;BME280_temperature;BME280_humidity;BME280_pressure;Samples;Min_cycle;Max_cycle;Signal;HPM_P1;HPM_P2
2022/04/06 00:01:14;;;;;;;6.47;2.13;;;;;;;;;;5076895;28;20494;-76
2022/04/06 00:03:40;;;;;;;5.95;2.08;;;;;;;;;;5085353;28;20405;-76
2022/04/06 00:06:08;;;;;;;3.28;1.00;;;;;;;;;;5090365;28;20067;-76
2022/04/06 00:08:33;;;;;;;5.25;1.30;;;;;;;;;;5090254;28;20493;-77
2022/04/06 00:10:59;;;;;;;3.40;0.98;;;;;;;;;;5089797;28;20047;-76
2022/04/06 00:13:25;;;;;;;3.45;0.93;;;;;;;;;;5057225;28;20036;-76
2022/04/06 00:15:50;;;;;;;3.42;1.05;;;;;;;;;;5093693;28;20040;-76
2022/04/06 00:18:16;;;;;;;4.32;1.10;;;;;;;;;;5093517;28;20036;-76
2022/04/06 00:20:42;;;;;;;6.50;1.95;;;;;;;;;;5093824;28;20490;-76
2022/04/06 00:23:08;;;;;;;2.85;1.23;;;;;;;;;;5110532;28;20109;-76
2022/04/06 00:25:34;;;;;;;2.42;0.98;;;;;;;;;;5093505;28;20378;-76
2022/04/06 00:27:59;;;;;;;4.40;1.20;;;;;;;;;;5093366;28;20042;-77
2022/04/06 00:30:25;;;;;;;2.55;0.88;;;;;;;;;;5093746;28;20054;-76
2022/04/06 00:32:50;;;;;;;4.15;1.10;;;;;;;;;;5093602;28;20040;-76
2022/04/06 00:35:32;;;;;;;3.85;1.00;;;;;;;;;;5111102;28;20558;-76
2022/04/06 00:38:01;;;;;;;3.15;0.82;;;;;;;;;;5097652;28;20549;-76
2022/04/06 00:40:26;;;;;;;3.15;1.17;;;;;;;;;;5077066;28;20047;-76
2022/04/06 00:42:53;;;;;;;2.50;1.30;;;;;;;;;;5077342;28;20032;-76
2022/04/06 00:45:20;;;;;;;4.05;1.50;;;;;;;;;;5077208;28;20406;-76
2022/04/06 00:47:45;;;;;;;2.90;1.10;;;;;;;;;;5077143;28;20036;-76
2022/04/06 00:50:11;;;;;;;2.65;1.13;;;;;;;;;;5093516;28;20043;-76
2022/04/06 00:52:36;;;;;;;3.97;1.23;;;;;;;;;;5068092;28;20089;-76
2022/04/06 00:55:03;;;;;;;1.98;0.82;;;;;;;;;;5093830;28;20040;-76
2022/04/06 00:57:28;;;;;;;2.28;0.70;;;;;;;;;;5076681;28;20035;-76
2022/04/06 00:59:55;;;;;;;1.65;0.90;;;;;;;;;;5096891;28;20039;-76
2022/04/06 01:02:21;;;;;;;2.95;1.08;;;;;;;;;;5097613;28;20511;-76
2022/04/06 01:04:46;;;;;;;3.00;1.08;;;;;;;;;;5096696;28;20044;-76
2022/04/06 01:07:12;;;;;;;3.35;0.90;;;;;;;;;;5096964;28;20405;-76
2022/04/06 01:09:37;;;;;;;3.03;0.95;;;;;;;;;;5063307;28;20394;-76
2022/04/06 01:12:03;;;;;;;3.17;1.08;;;;;;;;;;5079933;28;20047;-77
2022/04/06 01:14:28;;;;;;;2.67;1.13;;;;;;;;;;5104804;28;20111;-76
2022/04/06 01:17:00;;;;;;;2.50;0.70;;;;;;;;;;5060188;28;20036;-76
2022/04/06 01:19:30;;;;;;;3.90;0.95;;;;;;;;;;5093084;28;20036;-77
2022/04/06 01:21:56;;;;;;;2.80;0.88;;;;;;;;;;5076676;28;20451;-76
2022/04/06 01:24:21;;;;;;;2.88;0.95;;;;;;;;;;5073136;28;20074;-77
2022/04/06 01:26:50;;;;;;;2.28;0.90;;;;;;;;;;5096422;28;20036;-76
2022/04/06 01:29:15;;;;;;;3.20;1.40;;;;;;;;;;5097528;28;20568;-76
2022/04/06 01:31:41;;;;;;;2.35;1.00;;;;;;;;;;5095311;28;20047;-76
2022/04/06 01:34:06;;;;;;;3.00;1.05;;;;;;;;;;5091427;28;20409;-76
2022/04/06 01:36:32;;;;;;;2.75;1.05;;;;;;;;;;5113551;28;20070;-76
2022/04/06 01:38:57;;;;;;;2.05;0.77;;;;;;;;;;5096441;28;20047;-76
2022/04/06 01:41:22;;;;;;;1.77;0.82;;;;;;;;;;5096494;28;20455;-77
2022/04/06 01:43:48;;;;;;;2.83;0.85;;;;;;;;;;5096326;28;20039;-76
2022/04/06 01:46:13;;;;;;;3.70;1.10;;;;;;;;;;5096243;28;20469;-76
2022/04/06 01:52:12;;;;;;;2.85;0.77;;;;;;;;;;5095271;28;20413;-76
2022/04/06 01:54:08;;;;;;;2.60;0.85;;;;;;;;;;5064003;28;20050;-76
2022/04/06 01:56:34;;;;;;;2.97;0.90;;;;;;;;;;5058689;28;20505;-76
2022/04/06 01:58:59;;;;;;;2.13;0.65;;;;;;;;;;5094349;28;20409;-76
2022/04/06 02:01:25;;;;;;;2.88;0.77;;;;;;;;;;5112713;28;20035;-76
2022/04/06 02:03:50;;;;;;;2.45;0.70;;;;;;;;;;5067538;28;20056;-76
2022/04/06 02:06:17;;;;;;;3.28;1.10;;;;;;;;;;5092334;28;20047;-76
2022/04/06 02:08:42;;;;;;;2.03;0.90;;;;;;;;;;5075494;28;20040;-76
2022/04/06 02:11:08;;;;;;;1.90;0.70;;;;;;;;;;5075341;28;20039;-76
2022/04/06 02:13:33;;;;;;;3.95;0.85;;;;;;;;;;5060670;28;20120;-76
2022/04/06 02:15:59;;;;;;;2.17;0.80;;;;;;;;;;5078718;28;20401;-76
2022/04/06 02:18:25;;;;;;;4.10;1.00;;;;;;;;;;5112366;28;20103;-76
2022/04/06 02:20:50;;;;;;;4.15;1.02;;;;;;;;;;5095775;28;20445;-76
2022/04/06 02:23:16;;;;;;;4.10;0.77;;;;;;;;;;5092124;28;20115;-76
2022/04/06 02:25:41;;;;;;;2.90;0.90;;;;;;;;;;5041964;28;20036;-76
2022/04/06 02:28:07;;;;;;;1.73;0.70;;;;;;;;;;5074900;28;20387;-76
2022/04/06 02:30:32;;;;;;;2.58;0.93;;;;;;;;;;5058645;28;20429;-76
2022/04/06 02:32:58;;;;;;;1.98;0.55;;;;;;;;;;5058391;28;20036;-76
2022/04/06 02:35:23;;;;;;;4.97;1.10;;;;;;;;;;5075114;28;20375;-76
2022/04/06 02:37:49;;;;;;;2.92;1.40;;;;;;;;;;5074578;28;20469;-77
2022/04/06 02:40:14;;;;;;;3.15;0.90;;;;;;;;;;5058707;28;20127;-76
2022/04/06 02:42:40;;;;;;;2.50;0.98;;;;;;;;;;5091876;28;20074;-76
2022/04/06 02:45:06;;;;;;;2.33;0.70;;;;;;;;;;5091604;28;20032;-76
2022/04/06 02:47:31;;;;;;;2.38;0.60;;;;;;;;;;5091928;28;20560;-76
2022/04/06 02:49:57;;;;;;;3.65;1.05;;;;;;;;;;5074724;28;20410;-76
2022/04/06 02:52:22;;;;;;;2.38;0.70;;;;;;;;;;5100329;28;20413;-77
2022/04/06 02:54:48;;;;;;;3.05;0.90;;;;;;;;;;5095025;28;20413;-76
2022/04/06 02:57:13;;;;;;;3.20;0.77;;;;;;;;;;5102229;28;20114;-76
2022/04/06 02:59:40;;;;;;;2.63;0.60;;;;;;;;;;5091084;28;20384;-76
2022/04/06 03:02:05;;;;;;;2.08;0.57;;;;;;;;;;5098349;28;20039;-76
2022/04/06 03:04:31;;;;;;;3.00;1.02;;;;;;;;;;5061226;28;20032;-76
2022/04/06 03:06:56;;;;;;;3.70;1.35;;;;;;;;;;5094592;28;20494;-76
2022/04/06 03:09:22;;;;;;;3.60;0.82;;;;;;;;;;5094565;28;20031;-76
2022/04/06 03:11:47;;;;;;;1.63;0.50;;;;;;;;;;5077913;28;20044;-76
2022/04/06 03:14:13;;;;;;;3.28;1.23;;;;;;;;;;5090791;28;20033;-76
2022/04/06 03:16:38;;;;;;;1.70;0.68;;;;;;;;;;5074548;28;20429;-76
2022/04/06 03:19:04;;;;;;;2.92;0.80;;;;;;;;;;5074500;28;20040;-76
2022/04/06 03:21:31;;;;;;;2.30;0.90;;;;;;;;;;5061718;28;20067;-76
2022/04/06 03:23:57;;;;;;;1.95;0.88;;;;;;;;;;5074142;28;20036;-76
2022/04/06 03:26:22;;;;;;;4.15;1.27;;;;;;;;;;5074146;28;20040;-76
2022/04/06 03:28:48;;;;;;;2.55;0.60;;;;;;;;;;5074085;28;20028;-76
2022/04/06 03:31:13;;;;;;;2.88;0.95;;;;;;;;;;5057629;28;20782;-76
2022/04/06 03:33:39;;;;;;;1.90;0.70;;;;;;;;;;5057256;28;20382;-76
2022/04/06 03:36:05;;;;;;;1.38;0.43;;;;;;;;;;5057267;28;20421;-76
2022/04/06 03:38:30;;;;;;;1.58;0.60;;;;;;;;;;5057252;28;20035;-76
2022/04/06 03:40:56;;;;;;;3.40;1.00;;;;;;;;;;5057125;28;20516;-76
2022/04/06 03:43:22;;;;;;;2.28;0.60;;;;;;;;;;5091001;28;20073;-76
2022/04/06 03:45:47;;;;;;;1.65;0.70;;;;;;;;;;5057405;28;20036;-76
2022/04/06 03:48:13;;;;;;;2.92;0.85;;;;;;;;;;5073739;28;20061;-76
2022/04/06 03:50:38;;;;;;;4.93;0.98;;;;;;;;;;5090814;28;20460;-76
2022/04/06 03:53:04;;;;;;;4.32;1.00;;;;;;;;;;5088423;28;20131;-76
2022/04/06 03:55:29;;;;;;;2.20;0.57;;;;;;;;;;5078792;28;20059;-76
2022/04/06 03:57:55;;;;;;;3.47;0.70;;;;;;;;;;5082684;28;20031;-76
2022/04/06 04:00:21;;;;;;;2.22;0.57;;;;;;;;;;5110885;28;20071;-76
2022/04/06 04:02:47;;;;;;;2.10;0.50;;;;;;;;;;5076857;28;20040;-77
2022/04/06 04:05:12;;;;;;;2.75;0.90;;;;;;;;;;5112064;28;20405;-76
2022/04/06 04:07:38;;;;;;;2.75;0.88;;;;;;;;;;5077101;28;20032;-76
2022/04/06 04:10:08;;;;;;;2.05;0.70;;;;;;;;;;5095741;28;20039;-76
2022/04/06 04:12:34;;;;;;;2.72;0.70;;;;;;;;;;5100084;28;20451;-76
2022/04/06 04:14:59;;;;;;;2.42;0.70;;;;;;;;;;5080085;28;20040;-76
2022/04/06 04:17:25;;;;;;;2.80;0.50;;;;;;;;;;5097121;28;20439;-76
2022/04/06 04:19:50;;;;;;;1.98;0.70;;;;;;;;;;5063426;28;20410;-76
2022/04/06 04:22:15;;;;;;;2.17;0.55;;;;;;;;;;5080189;28;20398;-76
2022/04/06 04:24:41;;;;;;;1.85;0.50;;;;;;;;;;5075798;28;20140;-76
2022/04/06 04:27:07;;;;;;;3.05;1.30;;;;;;;;;;5079433;28;20071;-76
2022/04/06 04:29:33;;;;;;;2.35;0.90;;;;;;;;;;5097399;28;20077;-76
2022/04/06 04:31:58;;;;;;;4.00;0.90;;;;;;;;;;5080043;28;20066;-76
2022/04/06 04:34:24;;;;;;;2.70;0.73;;;;;;;;;;5080313;28;20139;-76
2022/04/06 04:36:49;;;;;;;1.27;0.43;;;;;;;;;;5080213;28;20040;-76
2022/04/06 04:39:14;;;;;;;1.95;0.82;;;;;;;;;;5096855;28;20426;-76
2022/04/06 04:41:40;;;;;;;2.40;0.60;;;;;;;;;;5079587;28;20036;-76
2022/04/06 04:44:05;;;;;;;1.08;0.50;;;;;;;;;;5080104;28;20402;-76
2022/04/06 04:46:31;;;;;;;3.72;0.50;;;;;;;;;;5096833;28;20394;-76
2022/04/06 04:48:56;;;;;;;2.25;0.50;;;;;;;;;;5078877;28;20043;-76
2022/04/06 04:51:22;;;;;;;2.50;0.65;;;;;;;;;;5099736;28;20371;-76
2022/04/06 04:53:47;;;;;;;2.20;0.60;;;;;;;;;;5080141;28;20456;-76
2022/04/06 04:56:12;;;;;;;1.33;0.45;;;;;;;;;;5062890;28;20032;-76
2022/04/06 04:58:38;;;;;;;3.38;0.85;;;;;;;;;;5058994;28;20414;-77
2022/04/06 05:01:03;;;;;;;1.60;0.43;;;;;;;;;;5100175;28;20035;-76
2022/04/06 05:03:29;;;;;;;3.05;0.50;;;;;;;;;;5100127;28;20409;-76
2022/04/06 05:05:56;;;;;;;2.55;0.68;;;;;;;;;;5066622;28;20118;-77
2022/04/06 05:08:22;;;;;;;1.80;0.77;;;;;;;;;;5066665;28;20040;-76
2022/04/06 05:10:47;;;;;;;2.63;0.60;;;;;;;;;;5116624;28;20039;-76
2022/04/06 05:13:17;;;;;;;2.30;0.57;;;;;;;;;;5100101;28;20114;-76
2022/04/06 05:15:44;;;;;;;1.83;0.50;;;;;;;;;;5096780;28;20063;-76
2022/04/06 05:18:10;;;;;;;2.50;0.93;;;;;;;;;;5079636;28;20044;-76
2022/04/06 05:20:36;;;;;;;1.88;0.52;;;;;;;;;;5079962;28;20078;-76
2022/04/06 05:23:02;;;;;;;1.70;0.50;;;;;;;;;;5059078;28;20047;-76
2022/04/06 05:25:27;;;;;;;1.88;0.57;;;;;;;;;;5076131;28;20037;-76
2022/04/06 05:27:54;;;;;;;2.55;0.50;;;;;;;;;;5075979;28;20028;-76
2022/04/06 05:30:22;;;;;;;1.90;0.47;;;;;;;;;;5076634;28;20040;-76
2022/04/06 05:32:48;;;;;;;1.95;0.80;;;;;;;;;;5076208;28;20028;-76
2022/04/06 05:35:14;;;;;;;2.22;0.60;;;;;;;;;;5076323;28;20032;-76
2022/04/06 05:37:40;;;;;;;2.33;0.80;;;;;;;;;;5076320;28;20050;-76
2022/04/06 05:40:06;;;;;;;1.65;0.55;;;;;;;;;;5075884;28;20060;-76
2022/04/06 05:42:32;;;;;;;2.47;0.77;;;;;;;;;;5062805;28;20103;-77
2022/04/06 05:44:57;;;;;;;1.95;0.70;;;;;;;;;;5059409;28;20038;-76
2022/04/06 05:47:23;;;;;;;1.88;0.75;;;;;;;;;;5075821;28;20036;-76
2022/04/06 05:49:48;;;;;;;1.73;0.50;;;;;;;;;;5076311;28;20040;-77
2022/04/06 05:52:14;;;;;;;1.70;0.80;;;;;;;;;;5066948;28;20069;-77
2022/04/06 05:54:40;;;;;;;2.10;0.50;;;;;;;;;;5112560;28;20043;-77
2022/04/06 05:57:06;;;;;;;1.15;0.43;;;;;;;;;;5078779;28;20031;-77
2022/04/06 05:59:31;;;;;;;1.65;0.68;;;;;;;;;;5092339;28;20429;-76
2022/04/06 06:01:57;;;;;;;3.53;0.60;;;;;;;;;;5058946;28;20051;-77
2022/04/06 06:04:22;;;;;;;1.67;0.40;;;;;;;;;;5059041;28;20074;-77
2022/04/06 06:06:48;;;;;;;2.35;0.75;;;;;;;;;;5075424;28;20036;-77
2022/04/06 06:09:14;;;;;;;2.35;0.40;;;;;;;;;;5075095;28;20036;-77
2022/04/06 06:11:39;;;;;;;1.75;0.57;;;;;;;;;;5075519;28;20130;-76
2022/04/06 06:14:05;;;;;;;2.78;0.60;;;;;;;;;;5078273;28;20046;-76
2022/04/06 06:16:31;;;;;;;2.00;0.40;;;;;;;;;;5109392;28;20413;-77
2022/04/06 06:18:56;;;;;;;1.33;0.30;;;;;;;;;;5092588;28;20032;-75
2022/04/06 06:21:22;;;;;;;1.73;0.47;;;;;;;;;;5109144;28;20046;-76
2022/04/06 06:23:48;;;;;;;1.67;0.50;;;;;;;;;;5100678;28;20451;-76
2022/04/06 06:26:13;;;;;;;1.52;0.60;;;;;;;;;;5095484;28;20155;-76
2022/04/06 06:28:39;;;;;;;2.35;1.05;;;;;;;;;;5095551;28;20378;-75
2022/04/06 06:31:05;;;;;;;2.33;0.77;;;;;;;;;;5095337;28;20086;-75
2022/04/06 06:33:30;;;;;;;5.97;0.80;;;;;;;;;;5095666;28;20375;-78
2022/04/06 06:35:56;;;;;;;4.80;0.98;;;;;;;;;;5059858;28;20040;-78
2022/04/06 06:38:21;;;;;;;5.88;0.90;;;;;;;;;;5077445;28;20414;-78
2022/04/06 06:40:48;;;;;;;6.20;1.35;;;;;;;;;;5075237;28;20047;-78
2022/04/06 06:43:14;;;;;;;4.70;1.23;;;;;;;;;;5075498;28;20062;-78
2022/04/06 06:45:40;;;;;;;9.85;1.15;;;;;;;;;;5042130;28;20062;-78
2022/04/06 06:48:06;;;;;;;3.75;1.05;;;;;;;;;;5058383;28;20175;-78
2022/04/06 06:50:31;;;;;;;6.20;0.98;;;;;;;;;;5074881;28;20044;-77
2022/04/06 06:52:56;;;;;;;6.47;0.98;;;;;;;;;;5071285;28;20386;-78
2022/04/06 06:55:22;;;;;;;5.47;0.90;;;;;;;;;;5095179;28;20439;-77
2022/04/06 06:57:49;;;;;;;6.60;1.25;;;;;;;;;;5077943;28;20449;-78
2022/04/06 07:00:14;;;;;;;7.60;1.05;;;;;;;;;;5091487;28;20040;-78
2022/04/06 07:02:41;;;;;;;5.78;1.00;;;;;;;;;;5074848;28;20047;-78
2022/04/06 07:05:07;;;;;;;5.65;1.20;;;;;;;;;;5058119;28;20506;-78
2022/04/06 07:07:32;;;;;;;4.60;0.73;;;;;;;;;;5057806;28;20105;-78
2022/04/06 07:10:00;;;;;;;4.07;0.70;;;;;;;;;;5074072;28;20054;-78
2022/04/06 07:12:25;;;;;;;6.32;0.98;;;;;;;;;;5074872;28;20036;-78
2022/04/06 07:14:52;;;;;;;3.95;1.00;;;;;;;;;;5081410;28;20569;-78
2022/04/06 07:17:19;;;;;;;2.80;0.68;;;;;;;;;;5093957;28;20036;-78
2022/04/06 07:19:46;;;;;;;3.33;0.80;;;;;;;;;;5075722;28;20040;-79
2022/04/06 07:22:14;;;;;;;2.72;0.73;;;;;;;;;;5094749;28;20024;-79
2022/04/06 07:24:44;;;;;;;7.15;1.42;;;;;;;;;;5077592;28;20024;-78
2022/04/06 07:27:10;;;;;;;4.10;0.88;;;;;;;;;;5094346;28;20130;-79
2022/04/06 07:29:35;;;;;;;2.05;0.88;;;;;;;;;;5074877;28;20409;-78
2022/04/06 07:32:01;;;;;;;4.47;0.90;;;;;;;;;;5080948;28;20036;-79
2022/04/06 07:34:26;;;;;;;3.60;1.38;;;;;;;;;;5074472;28;20409;-78
2022/04/06 07:36:52;;;;;;;6.72;1.00;;;;;;;;;;5084463;28;20035;-79
2022/04/06 07:39:17;;;;;;;3.83;0.60;;;;;;;;;;5083117;28;20459;-78
2022/04/06 07:41:43;;;;;;;3.47;0.80;;;;;;;;;;5090427;28;20043;-79
2022/04/06 07:44:08;;;;;;;3.75;0.95;;;;;;;;;;5090607;28;20387;-78
2022/04/06 07:46:35;;;;;;;4.72;0.98;;;;;;;;;;5056262;28;20436;-79
2022/04/06 07:49:00;;;;;;;5.80;1.17;;;;;;;;;;5091186;28;20122;-78
2022/04/06 07:51:25;;;;;;;3.88;0.90;;;;;;;;;;5090995;28;20106;-78
2022/04/06 07:53:51;;;;;;;3.75;0.90;;;;;;;;;;5073305;28;20052;-78
2022/04/06 07:56:16;;;;;;;4.15;0.85;;;;;;;;;;5056610;28;20036;-78
2022/04/06 07:58:42;;;;;;;5.50;0.73;;;;;;;;;;5083101;28;20440;-78
2022/04/06 08:01:08;;;;;;;5.28;0.85;;;;;;;;;;5077249;28;20031;-78
2022/04/06 08:03:35;;;;;;;4.35;0.90;;;;;;;;;;5077119;28;20054;-78
2022/04/06 08:06:02;;;;;;;5.93;0.93;;;;;;;;;;5060658;28;20696;-78
2022/04/06 08:08:27;;;;;;;4.32;0.82;;;;;;;;;;5093580;28;20111;-78
2022/04/06 08:10:52;;;;;;;5.68;1.40;;;;;;;;;;5093859;28;20481;-78
2022/04/06 08:13:18;;;;;;;5.57;1.13;;;;;;;;;;5094065;28;20061;-78
2022/04/06 08:15:43;;;;;;;2.50;0.70;;;;;;;;;;5073177;28;20048;-78
2022/04/06 08:18:09;;;;;;;3.03;0.82;;;;;;;;;;5073266;28;20817;-78
2022/04/06 08:20:34;;;;;;;3.63;1.25;;;;;;;;;;5073652;28;20412;-78
2022/04/06 08:23:00;;;;;;;3.58;0.85;;;;;;;;;;5058543;28;20074;-78
2022/04/06 08:25:26;;;;;;;5.10;0.95;;;;;;;;;;5093527;28;20032;-78
2022/04/06 08:27:51;;;;;;;4.18;0.85;;;;;;;;;;5072756;28;20101;-78
2022/04/06 08:30:19;;;;;;;3.40;1.40;;;;;;;;;;5057062;28;20557;-78
2022/04/06 08:32:45;;;;;;;7.63;1.08;;;;;;;;;;5050686;28;20039;-78
2022/04/06 08:35:12;;;;;;;5.38;0.98;;;;;;;;;;5056672;28;20579;-78
2022/04/06 08:37:38;;;;;;;6.60;1.10;;;;;;;;;;5057422;28;20040;-78
2022/04/06 08:40:07;;;;;;;10.18;0.88;;;;;;;;;;5090047;28;20498;-77
2022/04/06 08:42:33;;;;;;;6.28;1.10;;;;;;;;;;5090424;28;20520;-78
2022/04/06 08:44:59;;;;;;;5.00;0.90;;;;;;;;;;5056864;28;20032;-78
2022/04/06 08:47:25;;;;;;;7.78;1.45;;;;;;;;;;5072593;28;20043;-78
2022/04/06 08:49:50;;;;;;;8.25;1.00;;;;;;;;;;5054188;28;20075;-77
2022/04/06 08:52:16;;;;;;;4.15;1.33;;;;;;;;;;5055418;28;20425;-78
2022/04/06 08:54:41;;;;;;;7.85;1.15;;;;;;;;;;5071990;28;20418;-78
2022/04/06 08:57:07;;;;;;;8.20;1.42;;;;;;;;;;5077071;28;20039;-78
2022/04/06 08:59:33;;;;;;;5.53;2.10;;;;;;;;;;5093541;28;20375;-79
2022/04/06 09:01:58;;;;;;;7.15;2.00;;;;;;;;;;5091975;28;20100;-78
2022/04/06 09:04:24;;;;;;;7.93;2.53;;;;;;;;;;5097325;28;20079;-79
2022/04/06 09:06:50;;;;;;;14.57;2.40;;;;;;;;;;5080701;28;20032;-78
2022/04/06 09:09:22;;;;;;;4.10;1.60;;;;;;;;;;5092943;28;20082;-78
2022/04/06 09:11:48;;;;;;;9.05;1.33;;;;;;;;;;5093317;28;20116;-78
2022/04/06 09:14:13;;;;;;;8.05;1.63;;;;;;;;;;5083863;28;20720;-78
2022/04/06 09:16:39;;;;;;;6.22;1.30;;;;;;;;;;5093319;28;20036;-78
2022/04/06 09:19:08;;;;;;;5.40;1.30;;;;;;;;;;5076928;28;20040;-78
2022/04/06 09:21:41;;;;;;;6.55;1.50;;;;;;;;;;5076411;28;20126;-78
2022/04/06 09:24:13;;;;;;;5.82;2.05;;;;;;;;;;5076391;28;20043;-78
2022/04/06 09:26:38;;;;;;;8.13;1.20;;;;;;;;;;5076019;28;20489;-79
2022/04/06 09:29:04;;;;;;;6.68;1.45;;;;;;;;;;5076678;28;20062;-78
2022/04/06 09:31:29;;;;;;;3.13;0.90;;;;;;;;;;5079207;28;20046;-79
2022/04/06 09:33:56;;;;;;;5.47;1.00;;;;;;;;;;5096618;28;20046;-78
2022/04/06 09:36:21;;;;;;;4.35;0.93;;;;;;;;;;5113496;28;20497;-78
2022/04/06 09:38:47;;;;;;;4.60;1.13;;;;;;;;;;5079570;28;20047;-78
2022/04/06 09:41:15;;;;;;;5.70;1.00;;;;;;;;;;5096380;28;20042;-78
2022/04/06 09:43:41;;;;;;;5.80;0.95;;;;;;;;;;5096779;28;20031;-78
2022/04/06 09:49:06;;;;;;;3.78;1.00;;;;;;;;;;5113385;28;20032;-78
2022/04/06 09:51:31;;;;;;;5.15;1.15;;;;;;;;;;5079702;28;20047;-78
2022/04/06 09:53:57;;;;;;;3.92;0.95;;;;;;;;;;5062521;28;20105;-78
2022/04/06 09:56:22;;;;;;;2.55;1.13;;;;;;;;;;5077267;28;20034;-78
2022/04/06 09:58:48;;;;;;;3.20;0.93;;;;;;;;;;5074283;28;20025;-78
2022/04/06 10:01:14;;;;;;;4.22;0.68;;;;;;;;;;5095946;28;20032;-78
2022/04/06 10:03:40;;;;;;;4.88;0.90;;;;;;;;;;5095849;28;20039;-78
2022/04/06 10:06:06;;;;;;;4.25;0.75;;;;;;;;;;5095975;28;20114;-78
2022/04/06 10:08:31;;;;;;;4.72;0.98;;;;;;;;;;5078071;28;20467;-79
2022/04/06 10:10:58;;;;;;;8.27;5.65;;;;;;;;;;5062319;28;20032;-78
2022/04/06 10:13:24;;;;;;;25.63;18.05;;;;;;;;;;5079030;28;20042;-79
2022/04/06 10:15:49;;;;;;;33.60;23.77;;;;;;;;;;5058673;28;20415;-78
2022/04/06 10:18:15;;;;;;;36.65;26.08;;;;;;;;;;5075788;28;20471;-78
2022/04/06 10:21:13;;;;;;;40.42;28.27;;;;;;;;;;5075722;28;20031;-79
2022/04/06 10:24:06;;;;;;;41.85;26.98;;;;;;;;;;5010723;28;20119;-78
2022/04/06 10:27:05;;;;;;;41.45;28.45;;;;;;;;;;5091855;28;20035;-79
2022/04/06 10:29:31;;;;;;;36.92;25.27;;;;;;;;;;5093050;28;20067;-78
2022/04/06 10:31:56;;;;;;;36.10;25.25;;;;;;;;;;5078681;28;20040;-78
2022/04/06 10:34:27;;;;;;;35.50;24.02;;;;;;;;;;5075203;28;20036;-78
2022/04/06 10:37:12;;;;;;;36.15;24.33;;;;;;;;;;5075265;28;20032;-78
2022/04/06 10:39:53;;;;;;;33.90;22.17;;;;;;;;;;5075754;28;20043;-79
2022/04/06 10:42:32;;;;;;;30.35;21.17;;;;;;;;;;5093012;28;20043;-79
2022/04/06 10:44:58;;;;;;;29.58;20.98;;;;;;;;;;5091598;28;20086;-79
2022/04/06 10:47:26;;;;;;;29.38;20.65;;;;;;;;;;5074772;28;20032;-78
2022/04/06 10:50:10;;;;;;;27.05;18.63;;;;;;;;;;5091331;28;20047;-78
2022/04/06 10:52:36;;;;;;;27.13;17.27;;;;;;;;;;5093126;28;20032;-79
2022/04/06 10:55:08;;;;;;;26.15;18.55;;;;;;;;;;5074978;28;20039;-79
2022/04/06 10:57:52;;;;;;;;;;;;;;;;;;5078212;28;20031;-78
2022/04/06 11:00:18;;;;;;;24.95;16.83;;;;;;;;;;5105366;28;20518;-78
2022/04/06 11:02:49;;;;;;;24.73;15.80;;;;;;;;;;5095186;28;20035;-79
2022/04/06 11:05:44;;;;;;;21.30;15.13;;;;;;;;;;5085278;28;20036;-78
2022/04/06 11:11:37;;;;;;;21.08;13.00;;;;;;;;;;5091469;28;20047;-79
2022/04/06 11:14:03;;;;;;;19.55;14.02;;;;;;;;;;5098052;28;20118;-78
2022/04/06 11:16:45;;;;;;;20.00;13.00;;;;;;;;;;5077566;28;20054;-79
2022/04/06 11:19:11;;;;;;;20.60;13.43;;;;;;;;;;5094239;28;20040;-78
2022/04/06 11:21:45;;;;;;;21.48;12.77;;;;;;;;;;5094292;28;20039;-79
2022/04/06 11:24:15;;;;;;;17.60;11.85;;;;;;;;;;5091072;28;20042;-79
2022/04/06 11:26:41;;;;;;;15.02;10.50;;;;;;;;;;5040422;28;20521;-78
2022/04/06 11:29:06;;;;;;;15.50;10.98;;;;;;;;;;5057192;28;20081;-78
2022/04/06 11:31:31;;;;;;;17.92;10.73;;;;;;;;;;5073958;28;20115;-78
2022/04/06 11:33:57;;;;;;;16.15;10.23;;;;;;;;;;5091207;28;20414;-79
2022/04/06 11:36:22;;;;;;;15.63;9.88;;;;;;;;;;5091226;28;20123;-78
2022/04/06 11:38:49;;;;;;;16.42;10.05;;;;;;;;;;5057116;28;20048;-79
2022/04/06 11:41:15;;;;;;;14.13;8.75;;;;;;;;;;5090970;28;20036;-78
2022/04/06 11:43:41;;;;;;;12.35;8.88;;;;;;;;;;5097407;28;20143;-78
2022/04/06 11:46:06;;;;;;;19.00;13.32;;;;;;;;;;5057445;28;20491;-78
2022/04/06 11:48:41;;;;;;;32.42;22.60;;;;;;;;;;5057432;28;20130;-78
2022/04/06 11:51:07;;;;;;;34.38;25.08;;;;;;;;;;5057588;28;20516;-78
2022/04/06 11:53:32;;;;;;;37.58;25.45;;;;;;;;;;5073684;28;20060;-78
2022/04/06 11:56:00;;;;;;;38.28;27.05;;;;;;;;;;5073528;28;20036;-78
2022/04/06 11:58:39;;;;;;;35.50;24.35;;;;;;;;;;5087443;28;20428;-78
2022/04/06 12:01:21;;;;;;;40.30;27.02;;;;;;;;;;5074109;28;20494;-78
2022/04/06 12:03:46;;;;;;;34.42;23.38;;;;;;;;;;5073874;28;20067;-78
2022/04/06 12:06:14;;;;;;;36.65;25.08;;;;;;;;;;5090041;28;20070;-78
2022/04/06 12:08:40;;;;;;;33.47;22.58;;;;;;;;;;5073815;28;20707;-78
2022/04/06 12:11:06;;;;;;;34.03;23.33;;;;;;;;;;5056696;28;20032;-78
2022/04/06 12:13:33;;;;;;;32.20;22.52;;;;;;;;;;5058256;28;20040;-78
2022/04/06 12:15:59;;;;;;;32.25;22.40;;;;;;;;;;5077280;28;20066;-78
2022/04/06 12:18:25;;;;;;;32.58;21.42;;;;;;;;;;5077145;28;20036;-78
2022/04/06 12:20:50;;;;;;;31.33;19.70;;;;;;;;;;5094215;28;20497;-78
2022/04/06 12:23:19;;;;;;;30.88;20.30;;;;;;;;;;5093574;28;20039;-78
2022/04/06 12:25:45;;;;;;;29.40;19.05;;;;;;;;;;5093403;28;20534;-78
2022/04/06 12:28:24;;;;;;;28.70;18.65;;;;;;;;;;5060120;28;20036;-78
2022/04/06 12:30:57;;;;;;;27.60;18.65;;;;;;;;;;5060485;28;20055;-78
2022/04/06 12:33:36;;;;;;;27.80;18.35;;;;;;;;;;5097602;28;20027;-78
2022/04/06 12:36:25;;;;;;;24.63;16.60;;;;;;;;;;5081203;28;20087;-78
2022/04/06 12:39:02;;;;;;;23.27;15.95;;;;;;;;;;5081957;28;20035;-78
2022/04/06 12:41:29;;;;;;;23.52;15.77;;;;;;;;;;5098138;28;20028;-77
2022/04/06 12:43:55;;;;;;;20.75;15.23;;;;;;;;;;5080950;28;20119;-77
2022/04/06 12:46:36;;;;;;;21.35;14.00;;;;;;;;;;5081099;28;20111;-77
2022/04/06 12:49:20;;;;;;;20.02;13.48;;;;;;;;;;5097399;28;20401;-77
2022/04/06 12:51:45;;;;;;;19.08;12.63;;;;;;;;;;5115529;28;20048;-77
2022/04/06 12:54:10;;;;;;;16.83;12.15;;;;;;;;;;5097109;28;20118;-77
2022/04/06 12:56:36;;;;;;;17.92;11.90;;;;;;;;;;5079726;28;20035;-77
2022/04/06 12:59:11;;;;;;;17.65;11.75;;;;;;;;;;5115250;28;20046;-77
2022/04/06 13:01:46;;;;;;;16.75;11.57;;;;;;;;;;5114243;28;20490;-77
2022/04/06 13:04:12;;;;;;;17.13;11.02;;;;;;;;;;5097828;28;20039;-77
2022/04/06 13:06:37;;;;;;;16.02;10.27;;;;;;;;;;5063465;28;20051;-77
2022/04/06 13:09:03;;;;;;;15.93;10.15;;;;;;;;;;5113571;28;20047;-77
2022/04/06 13:11:28;;;;;;;16.30;9.75;;;;;;;;;;5114157;28;20054;-77
2022/04/06 13:13:53;;;;;;;16.40;10.63;;;;;;;;;;5093341;28;20053;-77
2022/04/06 13:16:20;;;;;;;14.20;9.40;;;;;;;;;;5094744;28;20036;-77
2022/04/06 13:18:45;;;;;;;14.02;8.75;;;;;;;;;;5076857;28;20036;-77
2022/04/06 13:21:11;;;;;;;13.82;8.35;;;;;;;;;;5076537;28;20058;-77
2022/04/06 13:23:37;;;;;;;14.13;8.88;;;;;;;;;;5080031;28;20110;-77
2022/04/06 13:26:03;;;;;;;12.55;8.02;;;;;;;;;;5093184;28;20051;-77
2022/04/06 13:28:28;;;;;;;14.23;8.18;;;;;;;;;;5093248;28;20099;-77
2022/04/06 13:30:54;;;;;;;11.93;7.32;;;;;;;;;;5076117;28;20044;-77
2022/04/06 13:33:21;;;;;;;12.20;8.32;;;;;;;;;;5074645;28;20055;-77
2022/04/06 13:35:49;;;;;;;12.63;7.55;;;;;;;;;;5076470;28;20032;-77
2022/04/06 13:38:14;;;;;;;12.65;7.95;;;;;;;;;;5093048;28;20107;-77
2022/04/06 13:40:39;;;;;;;11.88;7.45;;;;;;;;;;5059266;28;20467;-77
2022/04/06 13:43:05;;;;;;;9.75;6.63;;;;;;;;;;5058759;28;20528;-77
2022/04/06 13:45:30;;;;;;;12.38;7.25;;;;;;;;;;5059430;28;20524;-77
2022/04/06 13:47:56;;;;;;;11.13;6.63;;;;;;;;;;5075922;28;20036;-77
2022/04/06 13:50:22;;;;;;;8.77;5.45;;;;;;;;;;5093077;28;20127;-77
2022/04/06 13:52:48;;;;;;;11.82;6.85;;;;;;;;;;5075473;28;20024;-77
2022/04/06 13:55:17;;;;;;;11.85;6.82;;;;;;;;;;5076514;28;20153;-77
2022/04/06 13:57:43;;;;;;;9.45;5.38;;;;;;;;;;5100494;28;20452;-77
2022/04/06 14:00:09;;;;;;;9.98;5.45;;;;;;;;;;5075669;28;20044;-77
2022/04/06 14:02:34;;;;;;;9.25;5.47;;;;;;;;;;5075986;28;20039;-77
2022/04/06 14:05:01;;;;;;;9.55;6.15;;;;;;;;;;5075725;28;20044;-77
2022/04/06 14:07:27;;;;;;;8.18;5.03;;;;;;;;;;5042376;28;20024;-77
2022/04/06 14:09:52;;;;;;;8.57;5.90;;;;;;;;;;5104185;28;20493;-77
2022/04/06 14:12:17;;;;;;;8.50;5.38;;;;;;;;;;5095855;28;20043;-77
2022/04/06 14:14:43;;;;;;;8.63;4.75;;;;;;;;;;5112873;28;20051;-77
2022/04/06 14:17:11;;;;;;;8.63;4.65;;;;;;;;;;5113112;28;20032;-76
2022/04/06 14:19:37;;;;;;;8.65;4.75;;;;;;;;;;5095829;28;20482;-77
2022/04/06 14:22:03;;;;;;;7.75;4.00;;;;;;;;;;5095582;28;20421;-77
2022/04/06 14:24:28;;;;;;;7.82;4.47;;;;;;;;;;5095408;28;20114;-77
2022/04/06 14:26:54;;;;;;;7.85;4.60;;;;;;;;;;5075193;28;20040;-77
2022/04/06 14:29:19;;;;;;;8.65;4.57;;;;;;;;;;5058505;28;20067;-77
2022/04/06 14:31:44;;;;;;;16.30;5.82;;;;;;;;;;5079473;28;20582;-77
2022/04/06 14:34:10;;;;;;;9.32;4.18;;;;;;;;;;5092978;28;20096;-77
2022/04/06 14:36:36;;;;;;;7.72;4.18;;;;;;;;;;5109561;28;20032;-77
2022/04/06 14:39:02;;;;;;;8.15;4.05;;;;;;;;;;5078918;28;20047;-77
2022/04/06 14:41:28;;;;;;;7.32;4.18;;;;;;;;;;5078173;28;20031;-77
2022/04/06 14:43:53;;;;;;;8.27;4.25;;;;;;;;;;5094940;28;20614;-77
2022/04/06 14:46:22;;;;;;;7.65;3.65;;;;;;;;;;5095063;28;20054;-77